createdAt,value
2023-05-21T00:00:39.882Z,1011.17
2023-05-21T00:01:39.768Z,1011.13
2023-05-21T00:02:39.830Z,1011.11
2023-05-21T00:03:39.797Z,1011.13
2023-05-21T00:04:39.738Z,1011.08
2023-05-21T00:05:39.805Z,1011.16
2023-05-21T00:06:39.759Z,1011.15
2023-05-21T00:07:39.700Z,1011.13
2023-05-21T00:08:39.740Z,1011.12
2023-05-21T00:09:39.739Z,1011.12
2023-05-21T00:10:39.688Z,1011.13
2023-05-21T00:11:39.671Z,1011.15
2023-05-21T00:12:39.668Z,1011.13
2023-05-21T00:13:39.679Z,1011.13
2023-05-21T00:14:39.630Z,1011.14
2023-05-21T00:15:39.773Z,1011.13
2023-05-21T00:16:39.707Z,1011.12
2023-05-21T00:17:39.624Z,1011.14
2023-05-21T00:18:39.785Z,1011.15
2023-05-21T00:19:39.616Z,1011.07
2023-05-21T00:20:39.572Z,1011.02
2023-05-21T00:21:39.609Z,1011.01
2023-05-21T00:22:39.548Z,1011.04
2023-05-21T00:23:39.548Z,1010.99
2023-05-21T00:24:39.562Z,1010.98
2023-05-21T00:25:39.568Z,1010.98
2023-05-21T00:26:39.504Z,1010.99
2023-05-21T00:27:39.509Z,1010.97
2023-05-21T00:28:39.481Z,1010.97
2023-05-21T00:29:39.490Z,1010.98
2023-05-21T00:30:39.465Z,1010.92
2023-05-21T00:31:39.483Z,1010.97
2023-05-21T00:32:39.459Z,1010.98
2023-05-21T00:33:39.469Z,1010.94
2023-05-21T00:34:39.467Z,1010.96
2023-05-21T00:35:39.486Z,1010.94
2023-05-21T00:36:39.425Z,1010.93
2023-05-21T00:37:39.386Z,1010.93
2023-05-21T00:38:39.375Z,1010.96
2023-05-21T00:39:39.356Z,1010.98
2023-05-21T00:40:39.407Z,1010.95
2023-05-21T00:41:39.464Z,1010.98
2023-05-21T00:42:39.350Z,1010.93
2023-05-21T00:43:39.314Z,1010.89
2023-05-21T00:44:39.314Z,1010.91
2023-05-21T00:45:39.419Z,1010.93
2023-05-21T00:46:39.302Z,1010.91
2023-05-21T00:47:39.407Z,1010.89
2023-05-21T00:48:39.305Z,1010.86
2023-05-21T00:49:39.268Z,1010.89
2023-05-21T00:50:39.248Z,1010.84
2023-05-21T00:51:39.226Z,1010.82
2023-05-21T00:52:39.237Z,1010.81
2023-05-21T00:53:39.236Z,1010.80
2023-05-21T00:54:39.236Z,1010.75
2023-05-21T00:55:39.194Z,1010.79
2023-05-21T00:56:39.175Z,1010.77
2023-05-21T00:57:39.155Z,1010.78
2023-05-21T00:58:39.152Z,1010.79
2023-05-21T00:59:39.145Z,1010.77
2023-05-21T01:00:39.160Z,1010.79
2023-05-21T01:01:39.134Z,1010.80
2023-05-21T01:02:39.227Z,1010.76
2023-05-21T01:03:39.172Z,1010.84
2023-05-21T01:04:39.085Z,1010.77
2023-05-21T01:05:39.106Z,1010.73
2023-05-21T01:06:39.067Z,1010.77
2023-05-21T01:07:39.124Z,1010.75
2023-05-21T01:08:39.077Z,1010.74
2023-05-21T01:09:39.033Z,1010.71
2023-05-21T01:10:39.011Z,1010.75
2023-05-21T01:11:39.014Z,1010.78
2023-05-21T01:12:39.016Z,1010.79
2023-05-21T01:13:39.041Z,1010.78
2023-05-21T01:14:38.988Z,1010.71
2023-05-21T01:15:39.169Z,1010.74
2023-05-21T01:16:39.005Z,1010.72
2023-05-21T01:17:38.981Z,1010.69
2023-05-21T01:18:39.026Z,1010.67
2023-05-21T01:19:38.962Z,1010.70
2023-05-21T01:20:38.917Z,1010.71
2023-05-21T01:21:38.909Z,1010.65
2023-05-21T01:22:38.888Z,1010.64
2023-05-21T01:23:38.906Z,1010.67
2023-05-21T01:24:38.877Z,1010.66
2023-05-21T01:25:38.969Z,1010.67
2023-05-21T01:26:39.035Z,1010.63
2023-05-21T01:27:38.834Z,1010.62
2023-05-21T01:28:38.827Z,1010.63
2023-05-21T01:29:38.809Z,1010.62
2023-05-21T01:30:38.923Z,1010.58
2023-05-21T01:31:38.800Z,1010.61
2023-05-21T01:32:38.847Z,1010.61
2023-05-21T01:33:39.009Z,1010.59
2023-05-21T01:34:38.784Z,1010.62
2023-05-21T01:35:38.922Z,1010.60
2023-05-21T01:36:38.762Z,1010.55
2023-05-21T01:37:38.865Z,1010.57
2023-05-21T01:38:38.727Z,1010.54
2023-05-21T01:39:38.726Z,1010.54
2023-05-21T01:40:38.793Z,1010.55
2023-05-21T01:41:38.692Z,1010.52
2023-05-21T01:42:38.721Z,1010.50
2023-05-21T01:43:38.683Z,1010.47
2023-05-21T01:44:38.659Z,1010.51
2023-05-21T01:45:38.648Z,1010.45
2023-05-21T01:46:38.739Z,1010.49
2023-05-21T01:47:38.678Z,1010.48
2023-05-21T01:48:38.645Z,1010.47
2023-05-21T01:49:38.591Z,1010.43
2023-05-21T01:50:38.590Z,1010.44
2023-05-21T01:51:38.584Z,1010.43
2023-05-21T01:52:38.599Z,1010.46
2023-05-21T01:53:38.578Z,1010.46
2023-05-21T01:54:38.564Z,1010.49
2023-05-21T01:55:38.757Z,1010.46
2023-05-21T01:56:38.537Z,1010.46
2023-05-21T01:57:38.549Z,1010.48
2023-05-21T01:58:38.543Z,1010.45
2023-05-21T01:59:38.507Z,1010.47
2023-05-21T02:00:38.474Z,1010.40
2023-05-21T02:01:38.500Z,1010.42
2023-05-21T02:02:38.552Z,1010.46
2023-05-21T02:03:38.725Z,1010.40
2023-05-21T02:04:38.476Z,1010.42
2023-05-21T02:05:38.627Z,1010.40
2023-05-21T02:06:38.420Z,1010.36
2023-05-21T02:07:38.399Z,1010.31
2023-05-21T02:08:38.404Z,1010.34
2023-05-21T02:09:38.386Z,1010.35
2023-05-21T02:10:38.468Z,1010.33
2023-05-21T02:11:38.362Z,1010.30
2023-05-21T02:12:38.357Z,1010.27
2023-05-21T02:13:38.329Z,1010.32
2023-05-21T02:14:38.388Z,1010.32
2023-05-21T02:15:38.444Z,1010.30
2023-05-21T02:16:38.604Z,1010.30
2023-05-21T02:17:38.337Z,1010.28
2023-05-21T02:18:38.308Z,1010.30
2023-05-21T02:19:38.309Z,1010.29
2023-05-21T02:20:38.305Z,1010.32
2023-05-21T02:21:38.258Z,1010.30
2023-05-21T02:22:38.254Z,1010.27
2023-05-21T02:23:38.267Z,1010.24
2023-05-21T02:24:38.287Z,1010.26
2023-05-21T02:25:38.520Z,1010.30
2023-05-21T02:26:38.238Z,1010.31
2023-05-21T02:27:38.191Z,1010.27
2023-05-21T02:28:38.213Z,1010.28
2023-05-21T02:29:38.162Z,1010.30
2023-05-21T02:30:38.164Z,1010.33
2023-05-21T02:31:38.151Z,1010.27
2023-05-21T02:32:38.153Z,1010.26
2023-05-21T02:33:38.187Z,1010.23
2023-05-21T02:34:38.117Z,1010.25
2023-05-21T02:35:38.298Z,1010.24
2023-05-21T02:36:38.093Z,1010.25
2023-05-21T02:37:38.080Z,1010.26
2023-05-21T02:38:38.139Z,1010.26
2023-05-21T02:39:38.095Z,1010.28
2023-05-21T02:40:38.067Z,1010.23
2023-05-21T02:41:38.037Z,1010.23
2023-05-21T02:42:38.074Z,1010.28
2023-05-21T02:43:38.011Z,1010.23
2023-05-21T02:44:37.997Z,1010.20
2023-05-21T02:45:38.299Z,1010.24
2023-05-21T02:46:37.979Z,1010.22
2023-05-21T02:47:38.008Z,1010.27
2023-05-21T02:48:38.116Z,1010.28
2023-05-21T02:49:37.961Z,1010.27
2023-05-21T02:50:37.999Z,1010.25
2023-05-21T02:51:37.937Z,1010.25
2023-05-21T02:52:37.955Z,1010.24
2023-05-21T02:53:37.974Z,1010.27
2023-05-21T02:54:37.998Z,1010.26
2023-05-21T02:55:38.242Z,1010.25
2023-05-21T02:56:37.870Z,1010.22
2023-05-21T02:57:37.864Z,1010.25
2023-05-21T02:58:37.881Z,1010.25
2023-05-21T02:59:37.844Z,1010.28
2023-05-21T03:00:37.852Z,1010.29
2023-05-21T03:01:37.857Z,1010.24
2023-05-21T03:02:37.922Z,1010.25
2023-05-21T03:03:37.868Z,1010.26
2023-05-21T03:04:37.779Z,1010.27
2023-05-21T03:05:38.117Z,1010.26
2023-05-21T03:06:37.758Z,1010.22
2023-05-21T03:07:37.745Z,1010.23
2023-05-21T03:08:37.747Z,1010.20
2023-05-21T03:09:37.733Z,1010.20
2023-05-21T03:10:37.786Z,1010.16
2023-05-21T03:11:37.750Z,1010.16
2023-05-21T03:12:37.852Z,1010.19
2023-05-21T03:13:37.720Z,1010.15
2023-05-21T03:14:37.667Z,1010.17
2023-05-21T03:15:38.005Z,1010.14
2023-05-21T03:16:37.705Z,1010.16
2023-05-21T03:17:37.742Z,1010.17
2023-05-21T03:18:37.656Z,1010.21
2023-05-21T03:19:37.624Z,1010.18
2023-05-21T03:20:37.659Z,1010.15
2023-05-21T03:21:37.597Z,1010.23
2023-05-21T03:22:37.612Z,1010.20
2023-05-21T03:23:37.610Z,1010.19
2023-05-21T03:24:37.569Z,1010.19
2023-05-21T03:25:37.736Z,1010.16
2023-05-21T03:26:37.568Z,1010.24
2023-05-21T03:27:37.531Z,1010.24
2023-05-21T03:28:37.521Z,1010.22
2023-05-21T03:29:37.595Z,1010.20
2023-05-21T03:30:37.505Z,1010.20
2023-05-21T03:31:37.542Z,1010.17
2023-05-21T03:32:37.502Z,1010.21
2023-05-21T03:33:37.523Z,1010.20
2023-05-21T03:34:37.629Z,1010.25
2023-05-21T03:35:37.782Z,1010.17
2023-05-21T03:36:37.505Z,1010.21
2023-05-21T03:37:37.420Z,1010.23
2023-05-21T03:38:37.406Z,1010.20
2023-05-21T03:39:37.442Z,1010.20
2023-05-21T03:40:37.398Z,1010.17
2023-05-21T03:41:37.382Z,1010.20
2023-05-21T03:42:37.400Z,1010.20
2023-05-21T03:43:37.367Z,1010.22
2023-05-21T03:44:37.427Z,1010.20
2023-05-21T03:45:37.587Z,1010.18
2023-05-21T03:46:37.489Z,1010.17
2023-05-21T03:47:37.395Z,1010.11
2023-05-21T03:48:37.305Z,1010.16
2023-05-21T03:49:37.296Z,1010.15
2023-05-21T03:50:37.348Z,1010.14
2023-05-21T03:51:37.268Z,1010.13
2023-05-21T03:52:37.330Z,1010.15
2023-05-21T03:53:37.266Z,1010.11
2023-05-21T03:54:37.322Z,1010.12
2023-05-21T03:55:37.448Z,1010.14
2023-05-21T03:56:37.223Z,1010.13
2023-05-21T03:57:37.210Z,1010.12
2023-05-21T03:58:37.181Z,1010.14
2023-05-21T03:59:37.380Z,1010.16
2023-05-21T04:00:37.206Z,1010.13
2023-05-21T04:01:37.174Z,1010.14
2023-05-21T04:02:37.239Z,1010.14
2023-05-21T04:03:39.328Z,1010.17
2023-05-21T04:04:37.177Z,1010.16
2023-05-21T04:05:37.403Z,1010.21
2023-05-21T04:06:37.147Z,1010.17
2023-05-21T04:07:37.092Z,1010.15
2023-05-21T04:08:37.133Z,1010.15
2023-05-21T04:09:37.083Z,1010.13
2023-05-21T04:10:37.064Z,1010.13
2023-05-21T04:11:37.050Z,1010.15
2023-05-21T04:12:37.169Z,1010.14
2023-05-21T04:13:37.032Z,1010.14
2023-05-21T04:14:37.022Z,1010.15
2023-05-21T04:15:37.314Z,1010.14
2023-05-21T04:16:37.074Z,1010.14
2023-05-21T04:17:37.034Z,1010.16
2023-05-21T04:18:36.970Z,1010.15
2023-05-21T04:19:37.107Z,1010.16
2023-05-21T04:20:36.937Z,1010.16
2023-05-21T04:21:36.977Z,1010.18
2023-05-21T04:22:36.997Z,1010.24
2023-05-21T04:23:36.966Z,1010.19
2023-05-21T04:24:36.930Z,1010.20
2023-05-21T04:25:37.139Z,1010.20
2023-05-21T04:26:36.945Z,1010.23
2023-05-21T04:27:36.912Z,1010.21
2023-05-21T04:28:36.864Z,1010.22
2023-05-21T04:29:36.881Z,1010.21
2023-05-21T04:30:36.839Z,1010.22
2023-05-21T04:31:36.978Z,1010.20
2023-05-21T04:32:36.913Z,1010.25
2023-05-21T04:33:36.811Z,1010.15
2023-05-21T04:34:36.793Z,1010.18
2023-05-21T04:35:37.116Z,1010.21
2023-05-21T04:36:36.801Z,1010.22
2023-05-21T04:37:36.800Z,1010.21
2023-05-21T04:38:36.754Z,1010.23
2023-05-21T04:39:36.745Z,1010.21
2023-05-21T04:40:36.829Z,1010.24
2023-05-21T04:41:36.787Z,1010.23
2023-05-21T04:42:36.709Z,1010.22
2023-05-21T04:43:36.729Z,1010.28
2023-05-21T04:44:36.688Z,1010.24
2023-05-21T04:45:36.924Z,1010.30
2023-05-21T04:46:37.259Z,1010.28
2023-05-21T04:47:36.693Z,1010.23
2023-05-21T04:48:36.645Z,1010.27
2023-05-21T04:49:36.629Z,1010.24
2023-05-21T04:50:36.683Z,1010.26
2023-05-21T04:51:36.637Z,1010.29
2023-05-21T04:52:36.629Z,1010.30
2023-05-21T04:53:36.595Z,1010.27
2023-05-21T04:54:36.578Z,1010.31
2023-05-21T04:55:36.855Z,1010.26
2023-05-21T04:56:36.560Z,1010.30
2023-05-21T04:57:36.541Z,1010.30
2023-05-21T04:58:36.624Z,1010.31
2023-05-21T04:59:36.520Z,1010.30
2023-05-21T05:00:36.567Z,1010.27
2023-05-21T05:01:36.500Z,1010.30
2023-05-21T05:02:36.505Z,1010.26
2023-05-21T05:03:36.521Z,1010.27
2023-05-21T05:04:36.501Z,1010.32
2023-05-21T05:05:36.607Z,1010.29
2023-05-21T05:06:36.441Z,1010.25
2023-05-21T05:07:36.452Z,1010.28
2023-05-21T05:08:36.463Z,1010.26
2023-05-21T05:09:36.415Z,1010.29
2023-05-21T05:10:36.457Z,1010.29
2023-05-21T05:11:36.394Z,1010.29
2023-05-21T05:12:36.425Z,1010.27
2023-05-21T05:13:36.485Z,1010.24
2023-05-21T05:14:36.372Z,1010.30
2023-05-21T05:15:36.625Z,1010.26
2023-05-21T05:16:36.346Z,1010.26
2023-05-21T05:17:36.507Z,1010.21
2023-05-21T05:18:36.314Z,1010.22
2023-05-21T05:19:36.454Z,1010.12
2023-05-21T05:20:36.282Z,1010.14
2023-05-21T05:21:36.400Z,1010.10
2023-05-21T05:22:36.271Z,1010.15
2023-05-21T05:23:36.259Z,1010.13
2023-05-21T05:24:36.245Z,1010.12
2023-05-21T05:25:36.382Z,1010.11
2023-05-21T05:26:36.244Z,1010.11
2023-05-21T05:27:38.349Z,1010.13
2023-05-21T05:28:36.241Z,1010.10
2023-05-21T05:29:36.212Z,1010.14
2023-05-21T05:30:36.234Z,1010.10
2023-05-21T05:31:36.166Z,1010.10
2023-05-21T05:32:36.197Z,1010.12
2023-05-21T05:33:36.149Z,1010.11
2023-05-21T05:34:36.153Z,1010.11
2023-05-21T05:35:36.286Z,1010.14
2023-05-21T05:36:36.108Z,1010.12
2023-05-21T05:37:36.101Z,1010.10
2023-05-21T05:38:36.109Z,1010.15
2023-05-21T05:39:36.200Z,1010.20
2023-05-21T05:40:36.066Z,1010.22
2023-05-21T05:41:36.076Z,1010.27
2023-05-21T05:42:36.040Z,1010.24
2023-05-21T05:43:36.042Z,1010.27
2023-05-21T05:44:36.055Z,1010.20
2023-05-21T05:45:36.247Z,1010.22
2023-05-21T05:46:36.123Z,1010.18
2023-05-21T05:47:36.054Z,1010.20
2023-05-21T05:48:36.038Z,1010.21
2023-05-21T05:49:35.971Z,1010.09
2023-05-21T05:50:36.409Z,1010.10
2023-05-21T05:51:35.937Z,1010.09
2023-05-21T05:52:35.933Z,1010.14
2023-05-21T05:53:35.966Z,1010.11
2023-05-21T05:54:35.972Z,1010.08
2023-05-21T05:55:36.141Z,1010.13
2023-05-21T05:56:35.938Z,1010.15
2023-05-21T05:57:35.880Z,1010.11
2023-05-21T05:58:35.875Z,1010.12
2023-05-21T05:59:35.898Z,1010.09
2023-05-21T06:00:35.856Z,1010.11
2023-05-21T06:01:35.861Z,1010.08
2023-05-21T06:02:35.916Z,1010.10
2023-05-21T06:03:36.097Z,1010.09
2023-05-21T06:04:35.824Z,1010.11
2023-05-21T06:05:36.148Z,1010.10
2023-05-21T06:06:35.779Z,1010.08
2023-05-21T06:07:35.771Z,1010.14
2023-05-21T06:08:38.052Z,1010.08
2023-05-21T06:09:35.829Z,1010.11
2023-05-21T06:10:35.733Z,1010.12
2023-05-21T06:11:35.726Z,1010.11
2023-05-21T06:12:35.709Z,1010.08
2023-05-21T06:13:35.737Z,1010.07
2023-05-21T06:14:35.750Z,1010.10
2023-05-21T06:15:35.835Z,1010.11
2023-05-21T06:16:35.795Z,1010.09
2023-05-21T06:17:35.712Z,1010.06
2023-05-21T06:18:35.646Z,1010.02
2023-05-21T06:19:35.673Z,1010.01
2023-05-21T06:20:35.700Z,1010.04
2023-05-21T06:21:35.615Z,1010.01
2023-05-21T06:22:35.608Z,1009.99
2023-05-21T06:23:35.644Z,1010.04
2023-05-21T06:24:35.598Z,1009.98
2023-05-21T06:25:35.967Z,1009.98
2023-05-21T06:26:37.715Z,1009.98
2023-05-21T06:27:35.553Z,1009.97
2023-05-21T06:28:35.537Z,1010.00
2023-05-21T06:29:35.536Z,1009.97
2023-05-21T06:30:35.513Z,1009.94
2023-05-21T06:31:35.565Z,1009.92
2023-05-21T06:32:35.635Z,1009.96
2023-05-21T06:33:35.590Z,1009.97
2023-05-21T06:34:35.472Z,1009.91
2023-05-21T06:35:35.767Z,1009.96
2023-05-21T06:36:35.544Z,1009.98
2023-05-21T06:37:35.549Z,1010.00
2023-05-21T06:38:35.441Z,1009.98
2023-05-21T06:39:35.419Z,1010.02
2023-05-21T06:40:35.437Z,1010.00
2023-05-21T06:41:35.400Z,1010.04
2023-05-21T06:42:35.438Z,1009.98
2023-05-21T06:43:35.412Z,1009.96
2023-05-21T06:44:35.370Z,1009.96
2023-05-21T06:45:35.675Z,1010.02
2023-05-21T06:46:35.407Z,1010.05
2023-05-21T06:47:35.354Z,1010.01
2023-05-21T06:48:35.341Z,1010.03
2023-05-21T06:49:35.316Z,1010.01
2023-05-21T06:50:35.333Z,1009.96
2023-05-21T06:51:35.374Z,1010.02
2023-05-21T06:52:35.341Z,1010.02
2023-05-21T06:53:36.777Z,1009.97
2023-05-21T06:54:35.252Z,1009.97
2023-05-21T06:55:35.508Z,1009.98
2023-05-21T06:56:35.269Z,1009.98
2023-05-21T06:57:35.336Z,1009.92
2023-05-21T06:58:35.231Z,1009.91
2023-05-21T06:59:35.200Z,1009.93
2023-05-21T07:00:35.220Z,1009.92
2023-05-21T07:01:35.249Z,1009.89
2023-05-21T07:02:35.287Z,1009.88
2023-05-21T07:03:35.216Z,1009.89
2023-05-21T07:04:35.245Z,1009.86
2023-05-21T07:05:35.422Z,1009.91
2023-05-21T07:06:35.127Z,1009.86
2023-05-21T07:07:35.113Z,1009.87
2023-05-21T07:08:35.194Z,1009.90
2023-05-21T07:09:35.090Z,1009.91
2023-05-21T07:10:35.096Z,1009.89
2023-05-21T07:11:35.188Z,1009.92
2023-05-21T07:12:35.357Z,1009.92
2023-05-21T07:13:35.383Z,1009.91
2023-05-21T07:14:35.053Z,1009.88
2023-05-21T07:15:35.312Z,1009.92
2023-05-21T07:16:35.098Z,1009.89
2023-05-21T07:17:35.106Z,1009.93
2023-05-21T07:18:35.031Z,1009.87
2023-05-21T07:19:35.037Z,1009.90
2023-05-21T07:20:35.004Z,1009.84
2023-05-21T07:21:34.995Z,1009.86
2023-05-21T07:22:34.975Z,1009.84
2023-05-21T07:23:34.940Z,1009.83
2023-05-21T07:24:34.963Z,1009.82
2023-05-21T07:25:35.150Z,1009.83
2023-05-21T07:26:34.905Z,1009.81
2023-05-21T07:27:34.908Z,1009.80
2023-05-21T07:28:34.904Z,1009.84
2023-05-21T07:29:34.864Z,1009.90
2023-05-21T07:30:34.863Z,1009.86
2023-05-21T07:31:36.966Z,1009.88
2023-05-21T07:32:34.958Z,1009.89
2023-05-21T07:33:36.097Z,1009.90
2023-05-21T07:34:34.811Z,1009.89
2023-05-21T07:35:35.091Z,1009.93
2023-05-21T07:36:36.765Z,1009.91
2023-05-21T07:37:34.817Z,1009.86
2023-05-21T07:38:34.793Z,1009.86
2023-05-21T07:39:34.775Z,1009.88
2023-05-21T07:40:34.784Z,1009.83
2023-05-21T07:41:36.322Z,1009.84
2023-05-21T07:42:34.732Z,1009.85
2023-05-21T07:43:34.739Z,1009.85
2023-05-21T07:44:34.747Z,1009.84
2023-05-21T07:45:34.842Z,1009.83
2023-05-21T07:46:34.785Z,1009.88
2023-05-21T07:47:34.692Z,1009.84
2023-05-21T07:48:35.695Z,1009.82
2023-05-21T07:49:34.673Z,1009.86
2023-05-21T07:50:34.641Z,1009.84
2023-05-21T07:51:34.647Z,1009.84
2023-05-21T07:52:34.737Z,1009.82
2023-05-21T07:53:34.641Z,1009.83
2023-05-21T07:54:34.661Z,1009.80
2023-05-21T07:55:34.721Z,1009.80
2023-05-21T07:56:34.597Z,1009.78
2023-05-21T07:57:34.567Z,1009.83
2023-05-21T07:58:34.564Z,1009.81
2023-05-21T07:59:34.906Z,1009.80
2023-05-21T08:00:34.537Z,1009.76
2023-05-21T08:01:34.547Z,1009.77
2023-05-21T08:02:34.653Z,1009.74
2023-05-21T08:03:34.720Z,1009.75
2023-05-21T08:04:34.821Z,1009.72
2023-05-21T08:05:34.653Z,1009.73
2023-05-21T08:06:34.481Z,1009.75
2023-05-21T08:07:34.460Z,1009.78
2023-05-21T08:08:34.455Z,1009.74
2023-05-21T08:09:34.537Z,1009.79
2023-05-21T08:10:34.474Z,1009.78
2023-05-21T08:11:34.453Z,1009.79
2023-05-21T08:12:34.416Z,1009.82
2023-05-21T08:13:34.413Z,1009.81
2023-05-21T08:14:34.438Z,1009.74
2023-05-21T08:15:34.579Z,1009.77
2023-05-21T08:16:34.468Z,1009.76
2023-05-21T08:17:34.428Z,1009.84
2023-05-21T08:18:34.369Z,1009.80
2023-05-21T08:19:34.514Z,1009.81
2023-05-21T08:20:34.346Z,1009.85
2023-05-21T08:21:36.064Z,1009.80
2023-05-21T08:22:35.971Z,1009.89
2023-05-21T08:23:34.300Z,1009.86
2023-05-21T08:24:34.336Z,1009.88
2023-05-21T08:25:36.433Z,1009.89
2023-05-21T08:26:34.327Z,1009.93
2023-05-21T08:27:34.282Z,1009.97
2023-05-21T08:28:34.240Z,1009.99
2023-05-21T08:29:34.291Z,1009.94
2023-05-21T08:30:34.259Z,1009.99
2023-05-21T08:31:34.344Z,1009.98
2023-05-21T08:32:34.214Z,1010.02
2023-05-21T08:33:34.180Z,1009.98
2023-05-21T08:34:34.270Z,1009.98
2023-05-21T08:35:34.246Z,1010.00
2023-05-21T08:36:34.169Z,1009.99
2023-05-21T08:37:34.197Z,1009.99
2023-05-21T08:38:34.153Z,1010.00
2023-05-21T08:39:34.126Z,1009.95
2023-05-21T08:40:34.193Z,1009.93
2023-05-21T08:41:34.094Z,1009.97
2023-05-21T08:42:37.401Z,1010.01
2023-05-21T08:43:34.070Z,1009.95
2023-05-21T08:44:34.060Z,1010.01
2023-05-21T08:45:34.103Z,1009.93
2023-05-21T08:46:35.099Z,1010.02
2023-05-21T08:47:34.084Z,1009.97
2023-05-21T08:48:34.019Z,1009.96
2023-05-21T08:49:34.066Z,1009.94
2023-05-21T08:50:34.014Z,1009.96
2023-05-21T08:51:34.016Z,1009.97
2023-05-21T08:52:33.984Z,1009.95
2023-05-21T08:53:33.956Z,1009.94
2023-05-21T08:54:34.029Z,1009.87
2023-05-21T08:55:33.963Z,1009.87
2023-05-21T08:56:33.939Z,1009.85
2023-05-21T08:57:33.951Z,1009.89
2023-05-21T08:58:33.917Z,1009.93
2023-05-21T08:59:33.896Z,1009.95
2023-05-21T09:00:33.897Z,1009.92
2023-05-21T09:01:33.884Z,1009.92
2023-05-21T09:02:33.923Z,1009.93
2023-05-21T09:03:33.917Z,1009.92
2023-05-21T09:04:33.911Z,1009.92
2023-05-21T09:05:33.896Z,1009.95
2023-05-21T09:06:33.842Z,1009.90
2023-05-21T09:07:33.807Z,1009.91
2023-05-21T09:08:33.841Z,1009.91
2023-05-21T09:09:33.789Z,1009.95
2023-05-21T09:10:33.790Z,1009.95
2023-05-21T09:11:33.815Z,1009.98
2023-05-21T09:12:33.759Z,1009.93
2023-05-21T09:13:33.777Z,1009.91
2023-05-21T09:14:33.777Z,1009.89
2023-05-21T09:15:33.745Z,1009.91
2023-05-21T09:16:33.797Z,1009.86
2023-05-21T09:17:33.749Z,1009.78
2023-05-21T09:18:33.689Z,1009.81
2023-05-21T09:19:33.801Z,1009.79
2023-05-21T09:20:33.673Z,1009.78
2023-05-21T09:21:33.653Z,1009.76
2023-05-21T09:22:33.651Z,1009.74
2023-05-21T09:23:33.667Z,1009.78
2023-05-21T09:24:35.984Z,1009.73
2023-05-21T09:25:33.708Z,1009.71
2023-05-21T09:26:33.609Z,1009.74
2023-05-21T09:27:33.591Z,1009.73
2023-05-21T09:28:33.625Z,1009.76
2023-05-21T09:29:33.602Z,1009.73
2023-05-21T09:30:35.905Z,1009.70
2023-05-21T09:31:33.591Z,1009.66
2023-05-21T09:32:33.594Z,1009.58
2023-05-21T09:33:33.521Z,1009.63
2023-05-21T09:34:33.517Z,1009.66
2023-05-21T09:35:33.597Z,1009.65
2023-05-21T09:36:33.493Z,1009.64
2023-05-21T09:37:33.477Z,1009.66
2023-05-21T09:38:33.497Z,1009.59
2023-05-21T09:39:34.247Z,1009.54
2023-05-21T09:40:33.456Z,1009.55
2023-05-21T09:41:33.467Z,1009.54
2023-05-21T09:42:33.462Z,1009.52
2023-05-21T09:43:33.417Z,1009.58
2023-05-21T09:44:33.394Z,1009.52
2023-05-21T09:45:33.444Z,1009.50
2023-05-21T09:46:33.425Z,1009.59
2023-05-21T09:47:33.401Z,1009.55
2023-05-21T09:48:33.407Z,1009.54
2023-05-21T09:49:33.448Z,1009.53
2023-05-21T09:50:33.342Z,1009.51
2023-05-21T09:51:33.867Z,1009.49
2023-05-21T09:52:33.345Z,1009.46
2023-05-21T09:53:33.304Z,1009.45
2023-05-21T09:54:33.357Z,1009.40
2023-05-21T09:55:33.280Z,1009.43
2023-05-21T09:56:33.285Z,1009.46
2023-05-21T09:57:33.253Z,1009.44
2023-05-21T09:58:33.264Z,1009.40
2023-05-21T09:59:34.130Z,1009.42
2023-05-21T10:00:33.245Z,1009.39
2023-05-21T10:01:33.239Z,1009.39
2023-05-21T10:02:33.225Z,1009.34
2023-05-21T10:03:33.254Z,1009.39
2023-05-21T10:04:33.247Z,1009.36
2023-05-21T10:05:33.179Z,1009.34
2023-05-21T10:06:33.170Z,1009.39
2023-05-21T10:07:33.632Z,1009.29
2023-05-21T10:08:33.146Z,1009.33
2023-05-21T10:09:33.228Z,1009.30
2023-05-21T10:10:33.148Z,1009.29
2023-05-21T10:11:33.156Z,1009.29
2023-05-21T10:12:33.155Z,1009.33
2023-05-21T10:13:33.090Z,1009.29
2023-05-21T10:14:33.116Z,1009.28
2023-05-21T10:15:33.091Z,1009.30
2023-05-21T10:16:33.098Z,1009.29
2023-05-21T10:17:33.071Z,1009.31
2023-05-21T10:18:33.129Z,1009.26
2023-05-21T10:19:33.148Z,1009.21
2023-05-21T10:20:33.013Z,1009.21
2023-05-21T10:21:33.069Z,1009.15
2023-05-21T10:22:34.882Z,1009.14
2023-05-21T10:23:32.984Z,1009.13
2023-05-21T10:24:32.978Z,1009.11
2023-05-21T10:25:32.972Z,1009.11
2023-05-21T10:26:32.962Z,1009.09
2023-05-21T10:27:33.127Z,1009.07
2023-05-21T10:28:32.935Z,1009.09
2023-05-21T10:29:32.939Z,1009.10
2023-05-21T10:30:32.932Z,1009.04
2023-05-21T10:31:32.892Z,1009.02
2023-05-21T10:32:33.057Z,1009.07
2023-05-21T10:33:32.898Z,1009.04
2023-05-21T10:34:32.869Z,1009.00
2023-05-21T10:35:32.853Z,1008.99
2023-05-21T10:36:32.902Z,1008.97
2023-05-21T10:37:32.914Z,1009.05
2023-05-21T10:38:32.821Z,1009.05
2023-05-21T10:39:32.827Z,1008.98
2023-05-21T10:40:32.811Z,1008.97
2023-05-21T10:41:32.797Z,1008.96
2023-05-21T10:42:32.803Z,1009.00
2023-05-21T10:43:32.802Z,1008.97
2023-05-21T10:44:32.752Z,1008.91
2023-05-21T10:45:32.801Z,1008.96
2023-05-21T10:46:32.741Z,1008.95
2023-05-21T10:47:32.750Z,1008.94
2023-05-21T10:48:33.723Z,1008.92
2023-05-21T10:49:32.757Z,1008.85
2023-05-21T10:50:32.719Z,1008.90
2023-05-21T10:51:32.676Z,1008.93
2023-05-21T10:52:33.292Z,1008.97
2023-05-21T10:53:32.655Z,1008.94
2023-05-21T10:54:32.691Z,1008.97
2023-05-21T10:55:32.644Z,1008.97
2023-05-21T10:56:32.632Z,1009.02
2023-05-21T10:57:32.618Z,1009.01
2023-05-21T10:58:32.653Z,1008.98
2023-05-21T10:59:32.640Z,1008.98
2023-05-21T11:00:32.581Z,1008.94
2023-05-21T11:01:32.602Z,1008.98
2023-05-21T11:02:32.642Z,1008.98
2023-05-21T11:03:35.018Z,1008.99
2023-05-21T11:04:32.599Z,1008.97
2023-05-21T11:05:32.532Z,1008.98
2023-05-21T11:06:32.518Z,1008.94
2023-05-21T11:07:32.505Z,1008.95
2023-05-21T11:08:32.502Z,1008.96
2023-05-21T11:09:32.486Z,1008.94
2023-05-21T11:10:41.267Z,1008.86
2023-05-21T11:11:32.477Z,1008.87
2023-05-21T11:12:32.471Z,1008.89
2023-05-21T11:13:32.449Z,1008.88
2023-05-21T11:14:32.475Z,1008.91
2023-05-21T11:15:32.439Z,1008.86
2023-05-21T11:16:32.444Z,1008.94
2023-05-21T11:17:32.539Z,1008.92
2023-05-21T11:18:32.386Z,1008.85
2023-05-21T11:19:34.032Z,1008.91
2023-05-21T11:20:33.541Z,1008.88
2023-05-21T11:21:32.379Z,1008.88
2023-05-21T11:22:32.359Z,1008.88
2023-05-21T11:23:32.349Z,1008.87
2023-05-21T11:24:32.328Z,1008.93
2023-05-21T11:25:32.353Z,1008.89
2023-05-21T11:26:32.327Z,1008.88
2023-05-21T11:27:32.312Z,1008.89
2023-05-21T11:28:32.336Z,1008.89
2023-05-21T11:29:32.324Z,1008.89
2023-05-21T11:30:34.511Z,1008.93
2023-05-21T11:31:32.313Z,1008.83
2023-05-21T11:32:32.312Z,1008.87
2023-05-21T11:33:32.228Z,1008.85
2023-05-21T11:34:32.697Z,1008.86
2023-05-21T11:35:32.226Z,1008.90
2023-05-21T11:36:34.005Z,1008.91
2023-05-21T11:37:32.207Z,1008.90
2023-05-21T11:38:32.213Z,1008.92
2023-05-21T11:39:32.181Z,1008.96
2023-05-21T11:40:32.193Z,1008.88
2023-05-21T11:41:32.169Z,1008.90
2023-05-21T11:42:32.161Z,1008.91
2023-05-21T11:43:32.138Z,1008.93
2023-05-21T11:44:32.249Z,1008.90
2023-05-21T11:45:32.156Z,1008.93
2023-05-21T11:46:32.133Z,1008.97
2023-05-21T11:47:32.156Z,1008.90
2023-05-21T11:48:32.685Z,1008.92
2023-05-21T11:49:32.068Z,1008.88
2023-05-21T11:50:32.086Z,1008.88
2023-05-21T11:51:32.079Z,1008.89
2023-05-21T11:52:32.101Z,1008.85
2023-05-21T11:53:32.027Z,1008.84
2023-05-21T11:54:32.010Z,1008.86
2023-05-21T11:55:32.055Z,1008.87
2023-05-21T11:56:31.996Z,1008.86
2023-05-21T11:57:32.028Z,1008.87
2023-05-21T11:58:31.978Z,1008.84
2023-05-21T11:59:31.968Z,1008.91
2023-05-21T12:00:31.998Z,1008.88
2023-05-21T12:01:31.933Z,1008.90
2023-05-21T12:02:32.157Z,1008.90
2023-05-21T12:03:32.039Z,1008.87
2023-05-21T12:04:31.911Z,1008.89
2023-05-21T12:05:31.974Z,1008.90